sensor_id;sensor_type;location;lat;lon;timestamp;temperature;humidity
610;DHT22;292;48.800;9.216;2024-01-15T00:01:15;1.50;65.90
610;DHT22;292;48.800;9.216;2024-01-15T00:03:42;1.50;65.70
610;DHT22;292;48.800;9.216;2024-01-15T00:06:09;1.50;65.40
610;DHT22;292;48.800;9.216;2024-01-15T00:08:36;1.50;65.40
610;DHT22;292;48.800;9.216;2024-01-15T00:11:05;1.60;65.40
610;DHT22;292;48.800;9.216;2024-01-15T00:13:32;1.60;65.40
610;DHT22;292;48.800;9.216;2024-01-15T00:15:59;1.60;65.30
610;DHT22;292;48.800;9.216;2024-01-15T00:18:26;1.60;65.30
610;DHT22;292;48.800;9.216;2024-01-15T00:20:53;1.60;65.10
610;DHT22;292;48.800;9.216;2024-01-15T00:23:20;1.60;65.10
610;DHT22;292;48.800;9.216;2024-01-15T00:25:47;1.60;65.00
610;DHT22;292;48.800;9.216;2024-01-15T00:28:16;1.60;65.00
610;DHT22;292;48.800;9.216;2024-01-15T00:30:43;1.60;65.00
610;DHT22;292;48.800;9.216;2024-01-15T00:33:10;1.60;64.90
610;DHT22;292;48.800;9.216;2024-01-15T00:35:38;1.60;65.00
610;DHT22;292;48.800;9.216;2024-01-15T00:38:05;1.60;64.90
610;DHT22;292;48.800;9.216;2024-01-15T00:40:33;1.60;65.00
610;DHT22;292;48.800;9.216;2024-01-15T00:43:00;1.60;65.00
610;DHT22;292;48.800;9.216;2024-01-15T00:45:29;1.60;64.90
610;DHT22;292;48.800;9.216;2024-01-15T00:47:56;1.50;65.00
610;DHT22;292;48.800;9.216;2024-01-15T00:50:25;1.60;64.90
610;DHT22;292;48.800;9.216;2024-01-15T00:52:52;1.60;64.90
610;DHT22;292;48.800;9.216;2024-01-15T00:55:31;1.60;64.90
610;DHT22;292;48.800;9.216;2024-01-15T00:57:58;1.50;64.90
610;DHT22;292;48.800;9.216;2024-01-15T01:00:26;1.60;65.00
610;DHT22;292;48.800;9.216;2024-01-15T01:02:54;1.60;65.10
610;DHT22;292;48.800;9.216;2024-01-15T01:05:21;1.50;65.00
610;DHT22;292;48.800;9.216;2024-01-15T01:07:48;1.50;65.10
610;DHT22;292;48.800;9.216;2024-01-15T01:10:15;1.50;65.10
610;DHT22;292;48.800;9.216;2024-01-15T01:12:42;1.60;65.10
610;DHT22;292;48.800;9.216;2024-01-15T01:15:09;1.60;65.10
610;DHT22;292;48.800;9.216;2024-01-15T01:17:36;1.60;65.30
610;DHT22;292;48.800;9.216;2024-01-15T01:20:07;1.60;65.40
610;DHT22;292;48.800;9.216;2024-01-15T01:22:34;1.60;65.40
610;DHT22;292;48.800;9.216;2024-01-15T01:25:01;1.60;65.60
610;DHT22;292;48.800;9.216;2024-01-15T01:27:28;1.60;65.60
610;DHT22;292;48.800;9.216;2024-01-15T01:29:55;1.60;65.60
610;DHT22;292;48.800;9.216;2024-01-15T01:32:23;1.60;65.70
610;DHT22;292;48.800;9.216;2024-01-15T01:34:49;1.60;65.70
610;DHT22;292;48.800;9.216;2024-01-15T01:37:18;1.70;65.90
610;DHT22;292;48.800;9.216;2024-01-15T01:39:46;1.70;65.90
610;DHT22;292;48.800;9.216;2024-01-15T01:42:12;1.70;65.90
610;DHT22;292;48.800;9.216;2024-01-15T01:44:40;1.70;66.00
610;DHT22;292;48.800;9.216;2024-01-15T01:47:07;1.70;66.00
610;DHT22;292;48.800;9.216;2024-01-15T01:49:35;1.70;66.00
610;DHT22;292;48.800;9.216;2024-01-15T01:52:03;1.70;66.20
610;DHT22;292;48.800;9.216;2024-01-15T01:54:34;1.70;66.20
610;DHT22;292;48.800;9.216;2024-01-15T01:57:03;1.70;66.30
610;DHT22;292;48.800;9.216;2024-01-15T01:59:30;1.80;66.30
610;DHT22;292;48.800;9.216;2024-01-15T02:02:00;1.80;66.30
610;DHT22;292;48.800;9.216;2024-01-15T02:04:30;1.90;66.20
610;DHT22;292;48.800;9.216;2024-01-15T02:06:59;1.80;65.70
610;DHT22;292;48.800;9.216;2024-01-15T02:09:26;1.90;65.90
610;DHT22;292;48.800;9.216;2024-01-15T02:11:55;1.90;65.90
610;DHT22;292;48.800;9.216;2024-01-15T02:14:22;1.90;65.90
610;DHT22;292;48.800;9.216;2024-01-15T02:16:49;1.90;65.90
610;DHT22;292;48.800;9.216;2024-01-15T02:19:16;1.90;66.00
610;DHT22;292;48.800;9.216;2024-01-15T02:21:43;1.90;66.00
610;DHT22;292;48.800;9.216;2024-01-15T02:24:15;1.80;66.20
610;DHT22;292;48.800;9.216;2024-01-15T02:26:42;1.90;66.20
610;DHT22;292;48.800;9.216;2024-01-15T02:29:20;1.80;66.20
610;DHT22;292;48.800;9.216;2024-01-15T02:31:51;1.90;66.40
610;DHT22;292;48.800;9.216;2024-01-15T02:34:18;1.90;66.30
610;DHT22;292;48.800;9.216;2024-01-15T02:36:45;1.90;66.20
610;DHT22;292;48.800;9.216;2024-01-15T02:39:13;1.90;66.30
610;DHT22;292;48.800;9.216;2024-01-15T02:41:40;1.90;66.30
610;DHT22;292;48.800;9.216;2024-01-15T02:44:09;1.90;66.40
610;DHT22;292;48.800;9.216;2024-01-15T02:46:36;1.90;66.30
610;DHT22;292;48.800;9.216;2024-01-15T02:49:03;1.90;66.20
610;DHT22;292;48.800;9.216;2024-01-15T02:51:30;1.90;66.20
610;DHT22;292;48.800;9.216;2024-01-15T02:53:57;1.90;66.30
610;DHT22;292;48.800;9.216;2024-01-15T02:56:25;1.80;66.20
610;DHT22;292;48.800;9.216;2024-01-15T02:58:52;1.80;66.40
610;DHT22;292;48.800;9.216;2024-01-15T03:01:19;1.80;66.40
610;DHT22;292;48.800;9.216;2024-01-15T03:03:47;1.80;66.60
610;DHT22;292;48.800;9.216;2024-01-15T03:06:14;1.80;66.60
610;DHT22;292;48.800;9.216;2024-01-15T03:08:41;1.80;66.70
610;DHT22;292;48.800;9.216;2024-01-15T03:11:08;1.80;66.70
610;DHT22;292;48.800;9.216;2024-01-15T03:13:37;1.80;66.70
610;DHT22;292;48.800;9.216;2024-01-15T03:16:04;1.80;66.60
610;DHT22;292;48.800;9.216;2024-01-15T03:18:32;1.80;66.70
610;DHT22;292;48.800;9.216;2024-01-15T03:20:58;1.80;66.70
610;DHT22;292;48.800;9.216;2024-01-15T03:23:26;1.80;66.70
610;DHT22;292;48.800;9.216;2024-01-15T03:25:53;1.80;66.90
610;DHT22;292;48.800;9.216;2024-01-15T03:28:20;1.80;66.90
610;DHT22;292;48.800;9.216;2024-01-15T03:30:49;1.80;66.90
610;DHT22;292;48.800;9.216;2024-01-15T03:33:16;1.80;66.90
610;DHT22;292;48.800;9.216;2024-01-15T03:35:43;1.90;66.90
610;DHT22;292;48.800;9.216;2024-01-15T03:38:10;1.90;66.90
610;DHT22;292;48.800;9.216;2024-01-15T03:40:37;1.90;66.70
610;DHT22;292;48.800;9.216;2024-01-15T03:43:04;1.90;66.60
610;DHT22;292;48.800;9.216;2024-01-15T03:45:31;1.90;66.60
610;DHT22;292;48.800;9.216;2024-01-15T03:48:00;1.90;66.70
610;DHT22;292;48.800;9.216;2024-01-15T03:50:27;1.90;66.70
610;DHT22;292;48.800;9.216;2024-01-15T03:52:54;1.90;66.70
610;DHT22;292;48.800;9.216;2024-01-15T03:55:20;1.90;66.70
610;DHT22;292;48.800;9.216;2024-01-15T03:57:47;1.90;66.90
610;DHT22;292;48.800;9.216;2024-01-15T04:00:16;1.90;67.00
610;DHT22;292;48.800;9.216;2024-01-15T04:02:43;1.90;67.00
610;DHT22;292;48.800;9.216;2024-01-15T04:05:11;1.90;67.00
610;DHT22;292;48.800;9.216;2024-01-15T04:07:38;1.90;67.00
610;DHT22;292;48.800;9.216;2024-01-15T04:10:06;1.90;66.90
610;DHT22;292;48.800;9.216;2024-01-15T04:12:33;1.90;66.90
610;DHT22;292;48.800;9.216;2024-01-15T04:15:00;1.90;66.90
610;DHT22;292;48.800;9.216;2024-01-15T04:17:27;1.90;67.00
610;DHT22;292;48.800;9.216;2024-01-15T04:19:54;2.00;67.00
610;DHT22;292;48.800;9.216;2024-01-15T04:22:23;2.00;67.00
610;DHT22;292;48.800;9.216;2024-01-15T04:24:50;2.00;67.00
610;DHT22;292;48.800;9.216;2024-01-15T04:27:19;2.00;67.00
610;DHT22;292;48.800;9.216;2024-01-15T04:29:48;2.00;67.00
610;DHT22;292;48.800;9.216;2024-01-15T04:32:15;2.10;67.00
610;DHT22;292;48.800;9.216;2024-01-15T04:34:44;2.10;67.00
610;DHT22;292;48.800;9.216;2024-01-15T04:37:11;2.20;67.00
610;DHT22;292;48.800;9.216;2024-01-15T04:39:39;2.20;66.70
610;DHT22;292;48.800;9.216;2024-01-15T04:42:06;2.20;66.60
610;DHT22;292;48.800;9.216;2024-01-15T04:44:34;2.20;66.70
610;DHT22;292;48.800;9.216;2024-01-15T04:47:01;2.30;66.70
610;DHT22;292;48.800;9.216;2024-01-15T04:49:28;2.30;66.60
610;DHT22;292;48.800;9.216;2024-01-15T04:51:55;2.40;66.30
610;DHT22;292;48.800;9.216;2024-01-15T04:54:22;2.40;66.30
610;DHT22;292;48.800;9.216;2024-01-15T04:56:53;2.40;66.30
610;DHT22;292;48.800;9.216;2024-01-15T04:59:20;2.40;66.20
610;DHT22;292;48.800;9.216;2024-01-15T05:01:48;2.50;66.00
610;DHT22;292;48.800;9.216;2024-01-15T05:04:15;2.50;65.90
610;DHT22;292;48.800;9.216;2024-01-15T05:06:42;2.50;65.90
610;DHT22;292;48.800;9.216;2024-01-15T05:09:09;2.50;65.90
610;DHT22;292;48.800;9.216;2024-01-15T05:11:37;2.50;65.90
610;DHT22;292;48.800;9.216;2024-01-15T05:14:06;2.50;65.70
610;DHT22;292;48.800;9.216;2024-01-15T05:16:33;2.50;65.90
610;DHT22;292;48.800;9.216;2024-01-15T05:19:00;2.50;66.00
610;DHT22;292;48.800;9.216;2024-01-15T05:21:27;2.50;66.00
610;DHT22;292;48.800;9.216;2024-01-15T05:23:54;2.60;66.20
610;DHT22;292;48.800;9.216;2024-01-15T05:26:21;2.60;66.00
610;DHT22;292;48.800;9.216;2024-01-15T05:28:48;2.60;66.00
610;DHT22;292;48.800;9.216;2024-01-15T05:31:17;2.60;66.30
610;DHT22;292;48.800;9.216;2024-01-15T05:33:44;2.60;66.00
610;DHT22;292;48.800;9.216;2024-01-15T05:36:11;2.70;66.00
610;DHT22;292;48.800;9.216;2024-01-15T05:38:39;2.70;65.90
610;DHT22;292;48.800;9.216;2024-01-15T05:41:06;2.70;65.90
610;DHT22;292;48.800;9.216;2024-01-15T05:43:33;2.70;65.70
610;DHT22;292;48.800;9.216;2024-01-15T05:45:59;2.80;65.70
610;DHT22;292;48.800;9.216;2024-01-15T05:48:28;2.80;65.60
610;DHT22;292;48.800;9.216;2024-01-15T05:50:56;2.90;65.30
610;DHT22;292;48.800;9.216;2024-01-15T05:53:22;2.90;65.10
610;DHT22;292;48.800;9.216;2024-01-15T05:55:49;2.80;65.10
610;DHT22;292;48.800;9.216;2024-01-15T05:58:16;2.80;65.10
610;DHT22;292;48.800;9.216;2024-01-15T06:00:43;2.70;65.40
610;DHT22;292;48.800;9.216;2024-01-15T06:03:11;2.70;65.70
610;DHT22;292;48.800;9.216;2024-01-15T06:05:40;2.70;65.70
610;DHT22;292;48.800;9.216;2024-01-15T06:08:07;2.70;65.90
610;DHT22;292;48.800;9.216;2024-01-15T06:10:34;2.70;65.90
610;DHT22;292;48.800;9.216;2024-01-15T06:13:01;2.70;65.70
610;DHT22;292;48.800;9.216;2024-01-15T06:15:28;2.70;65.70
610;DHT22;292;48.800;9.216;2024-01-15T06:17:55;2.70;65.70
610;DHT22;292;48.800;9.216;2024-01-15T06:20:22;2.70;65.70
610;DHT22;292;48.800;9.216;2024-01-15T06:22:51;2.70;65.70
610;DHT22;292;48.800;9.216;2024-01-15T06:25:18;2.80;65.40
610;DHT22;292;48.800;9.216;2024-01-15T06:27:45;2.80;65.40
610;DHT22;292;48.800;9.216;2024-01-15T06:30:13;2.80;65.30
610;DHT22;292;48.800;9.216;2024-01-15T06:32:40;2.80;65.40
610;DHT22;292;48.800;9.216;2024-01-15T06:35:07;2.80;65.30
610;DHT22;292;48.800;9.216;2024-01-15T06:37:36;2.80;65.30
610;DHT22;292;48.800;9.216;2024-01-15T06:40:06;2.80;65.30
610;DHT22;292;48.800;9.216;2024-01-15T06:42:34;2.80;65.10
610;DHT22;292;48.800;9.216;2024-01-15T06:45:03;2.80;65.00
610;DHT22;292;48.800;9.216;2024-01-15T06:47:30;2.80;64.90
610;DHT22;292;48.800;9.216;2024-01-15T06:49:58;2.80;65.00
610;DHT22;292;48.800;9.216;2024-01-15T06:52:25;2.80;65.10
610;DHT22;292;48.800;9.216;2024-01-15T06:54:52;2.80;64.90
610;DHT22;292;48.800;9.216;2024-01-15T06:57:20;2.70;64.90
610;DHT22;292;48.800;9.216;2024-01-15T06:59:47;2.70;65.10
610;DHT22;292;48.800;9.216;2024-01-15T07:02:15;2.70;65.10
610;DHT22;292;48.800;9.216;2024-01-15T07:04:42;2.70;65.10
610;DHT22;292;48.800;9.216;2024-01-15T07:07:09;2.70;65.30
610;DHT22;292;48.800;9.216;2024-01-15T07:09:36;2.80;65.30
610;DHT22;292;48.800;9.216;2024-01-15T07:12:03;2.80;65.30
610;DHT22;292;48.800;9.216;2024-01-15T07:14:32;2.80;65.10
610;DHT22;292;48.800;9.216;2024-01-15T07:16:59;2.80;65.30
610;DHT22;292;48.800;9.216;2024-01-15T07:19:28;2.70;65.10
610;DHT22;292;48.800;9.216;2024-01-15T07:21:55;2.80;65.30
610;DHT22;292;48.800;9.216;2024-01-15T07:24:23;2.80;65.30
610;DHT22;292;48.800;9.216;2024-01-15T07:26:50;2.80;65.00
610;DHT22;292;48.800;9.216;2024-01-15T07:29:17;2.80;65.00
610;DHT22;292;48.800;9.216;2024-01-15T07:31:49;2.90;65.00
610;DHT22;292;48.800;9.216;2024-01-15T07:34:16;2.90;64.90
610;DHT22;292;48.800;9.216;2024-01-15T07:36:44;2.90;64.70
610;DHT22;292;48.800;9.216;2024-01-15T07:39:11;2.90;64.60
610;DHT22;292;48.800;9.216;2024-01-15T07:41:39;2.90;64.60
610;DHT22;292;48.800;9.216;2024-01-15T07:44:06;2.90;64.40
610;DHT22;292;48.800;9.216;2024-01-15T07:46:33;3.00;64.30
610;DHT22;292;48.800;9.216;2024-01-15T07:49:01;3.00;64.00
610;DHT22;292;48.800;9.216;2024-01-15T07:51:29;3.00;64.00
610;DHT22;292;48.800;9.216;2024-01-15T07:53:56;3.00;64.00
610;DHT22;292;48.800;9.216;2024-01-15T07:56:24;3.00;63.80
610;DHT22;292;48.800;9.216;2024-01-15T07:58:53;3.00;63.40
610;DHT22;292;48.800;9.216;2024-01-15T08:01:19;3.00;63.30
610;DHT22;292;48.800;9.216;2024-01-15T08:03:47;3.00;63.30
610;DHT22;292;48.800;9.216;2024-01-15T08:06:15;3.10;63.10
610;DHT22;292;48.800;9.216;2024-01-15T08:08:42;3.10;63.00
610;DHT22;292;48.800;9.216;2024-01-15T08:11:09;3.10;62.80
610;DHT22;292;48.800;9.216;2024-01-15T08:13:36;3.10;62.70
610;DHT22;292;48.800;9.216;2024-01-15T08:16:05;3.10;62.70
610;DHT22;292;48.800;9.216;2024-01-15T08:18:32;3.10;62.30
610;DHT22;292;48.800;9.216;2024-01-15T08:20:59;3.10;62.10
610;DHT22;292;48.800;9.216;2024-01-15T08:23:27;3.10;62.00
610;DHT22;292;48.800;9.216;2024-01-15T08:25:56;3.20;62.10
610;DHT22;292;48.800;9.216;2024-01-15T08:28:24;3.10;62.00
610;DHT22;292;48.800;9.216;2024-01-15T08:30:51;3.10;61.80
610;DHT22;292;48.800;9.216;2024-01-15T08:33:18;3.10;61.70
610;DHT22;292;48.800;9.216;2024-01-15T08:35:45;3.10;61.70
610;DHT22;292;48.800;9.216;2024-01-15T08:38:12;3.10;61.80
610;DHT22;292;48.800;9.216;2024-01-15T08:40:41;3.10;62.00
610;DHT22;292;48.800;9.216;2024-01-15T08:43:08;3.10;62.00
610;DHT22;292;48.800;9.216;2024-01-15T08:45:35;3.20;61.70
610;DHT22;292;48.800;9.216;2024-01-15T08:48:02;3.20;62.00
610;DHT22;292;48.800;9.216;2024-01-15T08:50:29;3.20;62.00
610;DHT22;292;48.800;9.216;2024-01-15T08:52:57;3.20;61.70
610;DHT22;292;48.800;9.216;2024-01-15T08:55:24;3.20;61.70
610;DHT22;292;48.800;9.216;2024-01-15T08:57:53;3.30;61.40
610;DHT22;292;48.800;9.216;2024-01-15T09:00:21;3.30;61.20
610;DHT22;292;48.800;9.216;2024-01-15T09:02:48;3.30;61.00
610;DHT22;292;48.800;9.216;2024-01-15T09:05:15;3.30;61.00
610;DHT22;292;48.800;9.216;2024-01-15T09:07:42;3.30;60.70
610;DHT22;292;48.800;9.216;2024-01-15T09:10:11;3.40;60.70
610;DHT22;292;48.800;9.216;2024-01-15T09:12:38;3.40;60.40
610;DHT22;292;48.800;9.216;2024-01-15T09:15:07;3.40;60.10
610;DHT22;292;48.800;9.216;2024-01-15T09:17:35;3.40;60.20
610;DHT22;292;48.800;9.216;2024-01-15T09:20:02;3.40;60.20
610;DHT22;292;48.800;9.216;2024-01-15T09:22:29;3.50;60.10
610;DHT22;292;48.800;9.216;2024-01-15T09:24:57;3.50;60.10
610;DHT22;292;48.800;9.216;2024-01-15T09:27:24;3.50;60.00
610;DHT22;292;48.800;9.216;2024-01-15T09:29:52;3.50;60.10
610;DHT22;292;48.800;9.216;2024-01-15T09:32:20;3.50;60.10
610;DHT22;292;48.800;9.216;2024-01-15T09:34:48;3.60;60.00
610;DHT22;292;48.800;9.216;2024-01-15T09:37:15;3.60;59.80
610;DHT22;292;48.800;9.216;2024-01-15T09:39:42;3.60;59.80
610;DHT22;292;48.800;9.216;2024-01-15T09:42:09;3.60;59.70
610;DHT22;292;48.800;9.216;2024-01-15T09:44:37;3.60;59.40
610;DHT22;292;48.800;9.216;2024-01-15T09:47:04;3.70;59.40
610;DHT22;292;48.800;9.216;2024-01-15T09:49:34;3.70;59.20
610;DHT22;292;48.800;9.216;2024-01-15T09:52:02;3.70;59.20
610;DHT22;292;48.800;9.216;2024-01-15T09:54:30;3.70;59.20
610;DHT22;292;48.800;9.216;2024-01-15T09:56:57;3.70;59.30
610;DHT22;292;48.800;9.216;2024-01-15T09:59:24;3.80;59.20
610;DHT22;292;48.800;9.216;2024-01-15T10:01:56;3.80;59.00
610;DHT22;292;48.800;9.216;2024-01-15T10:04:25;3.80;59.20
610;DHT22;292;48.800;9.216;2024-01-15T10:06:54;3.80;58.60
610;DHT22;292;48.800;9.216;2024-01-15T10:09:23;3.80;58.60
610;DHT22;292;48.800;9.216;2024-01-15T10:11:50;3.80;58.80
610;DHT22;292;48.800;9.216;2024-01-15T10:14:17;3.90;58.80
610;DHT22;292;48.800;9.216;2024-01-15T10:16:44;3.90;58.90
610;DHT22;292;48.800;9.216;2024-01-15T10:19:11;3.90;58.60
610;DHT22;292;48.800;9.216;2024-01-15T10:21:38;3.90;58.60
610;DHT22;292;48.800;9.216;2024-01-15T10:24:07;4.00;58.60
610;DHT22;292;48.800;9.216;2024-01-15T10:26:34;4.00;58.60
610;DHT22;292;48.800;9.216;2024-01-15T10:29:00;4.00;58.60
610;DHT22;292;48.800;9.216;2024-01-15T10:31:28;4.00;58.50
610;DHT22;292;48.800;9.216;2024-01-15T10:34:10;4.00;58.50
610;DHT22;292;48.800;9.216;2024-01-15T10:36:41;4.00;58.40
610;DHT22;292;48.800;9.216;2024-01-15T10:39:09;4.00;58.40
610;DHT22;292;48.800;9.216;2024-01-15T10:41:37;4.00;58.20
610;DHT22;292;48.800;9.216;2024-01-15T10:44:05;4.00;58.10
610;DHT22;292;48.800;9.216;2024-01-15T10:46:32;4.00;58.20
610;DHT22;292;48.800;9.216;2024-01-15T10:49:00;4.10;57.80
610;DHT22;292;48.800;9.216;2024-01-15T10:51:28;4.00;57.80
610;DHT22;292;48.800;9.216;2024-01-15T10:53:56;4.00;58.00
610;DHT22;292;48.800;9.216;2024-01-15T10:56:26;4.10;58.00
610;DHT22;292;48.800;9.216;2024-01-15T10:58:54;4.10;58.10
610;DHT22;292;48.800;9.216;2024-01-15T11:01:22;4.10;58.10
610;DHT22;292;48.800;9.216;2024-01-15T11:03:49;4.10;58.10
610;DHT22;292;48.800;9.216;2024-01-15T11:06:18;4.10;58.20
610;DHT22;292;48.800;9.216;2024-01-15T11:08:48;4.20;58.10
610;DHT22;292;48.800;9.216;2024-01-15T11:11:16;4.20;58.20
610;DHT22;292;48.800;9.216;2024-01-15T11:13:46;4.20;58.20
610;DHT22;292;48.800;9.216;2024-01-15T11:16:16;4.20;58.40
610;DHT22;292;48.800;9.216;2024-01-15T11:19:01;4.20;58.10
610;DHT22;292;48.800;9.216;2024-01-15T11:21:29;4.20;58.40
610;DHT22;292;48.800;9.216;2024-01-15T11:23:57;4.20;58.60
610;DHT22;292;48.800;9.216;2024-01-15T11:26:36;4.20;59.00
610;DHT22;292;48.800;9.216;2024-01-15T11:29:06;4.20;59.70
610;DHT22;292;48.800;9.216;2024-01-15T11:31:59;4.10;60.70
610;DHT22;292;48.800;9.216;2024-01-15T11:34:52;4.10;61.70
610;DHT22;292;48.800;9.216;2024-01-15T11:37:20;4.00;62.40
610;DHT22;292;48.800;9.216;2024-01-15T11:39:51;4.00;62.70
610;DHT22;292;48.800;9.216;2024-01-15T11:42:20;4.00;63.00
610;DHT22;292;48.800;9.216;2024-01-15T11:44:51;4.00;63.10
610;DHT22;292;48.800;9.216;2024-01-15T11:47:50;4.00;63.70
610;DHT22;292;48.800;9.216;2024-01-15T11:50:24;4.10;63.60
610;DHT22;292;48.800;9.216;2024-01-15T11:52:59;4.00;63.60
610;DHT22;292;48.800;9.216;2024-01-15T11:55:28;4.00;63.70
610;DHT22;292;48.800;9.216;2024-01-15T11:57:57;4.00;64.00
610;DHT22;292;48.800;9.216;2024-01-15T12:00:31;4.00;64.10
610;DHT22;292;48.800;9.216;2024-01-15T12:02:59;4.00;64.60
610;DHT22;292;48.800;9.216;2024-01-15T12:05:27;3.90;64.70
610;DHT22;292;48.800;9.216;2024-01-15T12:07:56;3.90;65.00
610;DHT22;292;48.800;9.216;2024-01-15T12:10:23;3.90;65.60
610;DHT22;292;48.800;9.216;2024-01-15T12:12:58;3.90;66.00
610;DHT22;292;48.800;9.216;2024-01-15T12:15:28;3.80;66.20
610;DHT22;292;48.800;9.216;2024-01-15T12:17:55;3.90;66.30
610;DHT22;292;48.800;9.216;2024-01-15T12:20:24;3.90;66.20
610;DHT22;292;48.800;9.216;2024-01-15T12:22:52;3.80;66.20
610;DHT22;292;48.800;9.216;2024-01-15T12:25:21;3.80;66.40
610;DHT22;292;48.800;9.216;2024-01-15T12:27:48;3.80;66.90
610;DHT22;292;48.800;9.216;2024-01-15T12:30:16;3.80;67.20
610;DHT22;292;48.800;9.216;2024-01-15T12:32:45;3.80;67.70
610;DHT22;292;48.800;9.216;2024-01-15T12:35:14;3.70;68.00
610;DHT22;292;48.800;9.216;2024-01-15T12:37:43;3.70;68.60
610;DHT22;292;48.800;9.216;2024-01-15T12:40:12;3.60;69.20
610;DHT22;292;48.800;9.216;2024-01-15T12:42:40;3.50;69.60
610;DHT22;292;48.800;9.216;2024-01-15T12:45:09;3.50;70.50
610;DHT22;292;48.800;9.216;2024-01-15T12:47:36;3.50;70.90
610;DHT22;292;48.800;9.216;2024-01-15T12:50:08;3.50;71.30
610;DHT22;292;48.800;9.216;2024-01-15T12:58:21;3.40;72.80
610;DHT22;292;48.800;9.216;2024-01-15T13:00:48;3.40;73.20
610;DHT22;292;48.800;9.216;2024-01-15T13:03:15;3.30;73.80
610;DHT22;292;48.800;9.216;2024-01-15T13:05:44;3.30;74.40
610;DHT22;292;48.800;9.216;2024-01-15T13:08:11;3.20;74.80
610;DHT22;292;48.800;9.216;2024-01-15T13:10:38;3.20;75.20
610;DHT22;292;48.800;9.216;2024-01-15T13:13:07;3.20;75.70
610;DHT22;292;48.800;9.216;2024-01-15T13:15:35;3.30;75.80
610;DHT22;292;48.800;9.216;2024-01-15T13:18:02;3.30;76.10
610;DHT22;292;48.800;9.216;2024-01-15T13:20:29;3.30;76.20
610;DHT22;292;48.800;9.216;2024-01-15T13:22:58;3.30;76.40
610;DHT22;292;48.800;9.216;2024-01-15T13:25:25;3.30;76.50
610;DHT22;292;48.800;9.216;2024-01-15T13:27:52;3.30;76.50
610;DHT22;292;48.800;9.216;2024-01-15T13:30:19;3.40;76.70
610;DHT22;292;48.800;9.216;2024-01-15T13:32:46;3.40;76.80
610;DHT22;292;48.800;9.216;2024-01-15T13:35:13;3.40;76.80
610;DHT22;292;48.800;9.216;2024-01-15T13:37:40;3.40;76.80
610;DHT22;292;48.800;9.216;2024-01-15T13:40:10;3.40;76.80
610;DHT22;292;48.800;9.216;2024-01-15T13:42:41;3.50;76.80
610;DHT22;292;48.800;9.216;2024-01-15T13:45:09;3.50;76.80
610;DHT22;292;48.800;9.216;2024-01-15T13:47:38;3.50;77.00
610;DHT22;292;48.800;9.216;2024-01-15T13:50:07;3.50;76.80
610;DHT22;292;48.800;9.216;2024-01-15T13:52:34;3.50;76.80
610;DHT22;292;48.800;9.216;2024-01-15T13:55:01;3.60;76.80
610;DHT22;292;48.800;9.216;2024-01-15T13:57:30;3.60;76.80
610;DHT22;292;48.800;9.216;2024-01-15T13:59:57;3.60;76.80
610;DHT22;292;48.800;9.216;2024-01-15T14:02:24;3.60;76.70
610;DHT22;292;48.800;9.216;2024-01-15T14:04:51;3.60;76.70
610;DHT22;292;48.800;9.216;2024-01-15T14:07:18;3.60;76.80
610;DHT22;292;48.800;9.216;2024-01-15T14:09:45;3.70;76.70
610;DHT22;292;48.800;9.216;2024-01-15T14:12:12;3.70;76.80
610;DHT22;292;48.800;9.216;2024-01-15T14:14:40;3.70;76.70
610;DHT22;292;48.800;9.216;2024-01-15T14:17:07;3.70;76.80
610;DHT22;292;48.800;9.216;2024-01-15T14:19:34;3.70;76.80
610;DHT22;292;48.800;9.216;2024-01-15T14:22:02;3.70;76.70
610;DHT22;292;48.800;9.216;2024-01-15T14:24:29;3.70;76.70
610;DHT22;292;48.800;9.216;2024-01-15T14:26:55;3.70;76.70
610;DHT22;292;48.800;9.216;2024-01-15T14:29:22;3.70;76.80
610;DHT22;292;48.800;9.216;2024-01-15T14:31:53;3.70;76.50
610;DHT22;292;48.800;9.216;2024-01-15T14:34:20;3.70;76.40
610;DHT22;292;48.800;9.216;2024-01-15T14:36:49;3.70;76.20
610;DHT22;292;48.800;9.216;2024-01-15T14:39:19;3.70;76.00
610;DHT22;292;48.800;9.216;2024-01-15T14:41:46;3.70;76.00
610;DHT22;292;48.800;9.216;2024-01-15T14:44:13;3.70;75.70
610;DHT22;292;48.800;9.216;2024-01-15T14:46:41;3.60;75.70
610;DHT22;292;48.800;9.216;2024-01-15T14:49:09;3.60;75.40
610;DHT22;292;48.800;9.216;2024-01-15T14:51:36;3.50;75.00
610;DHT22;292;48.800;9.216;2024-01-15T14:54:03;3.40;75.10
610;DHT22;292;48.800;9.216;2024-01-15T14:56:30;3.40;75.40
610;DHT22;292;48.800;9.216;2024-01-15T14:58:58;3.30;75.80
610;DHT22;292;48.800;9.216;2024-01-15T15:01:25;3.20;76.40
610;DHT22;292;48.800;9.216;2024-01-15T15:03:52;3.10;77.10
610;DHT22;292;48.800;9.216;2024-01-15T15:06:20;3.10;77.50
610;DHT22;292;48.800;9.216;2024-01-15T15:08:52;3.00;77.80
610;DHT22;292;48.800;9.216;2024-01-15T15:11:21;3.00;78.10
610;DHT22;292;48.800;9.216;2024-01-15T15:13:48;3.00;78.30
610;DHT22;292;48.800;9.216;2024-01-15T15:16:15;2.90;78.40
610;DHT22;292;48.800;9.216;2024-01-15T15:18:44;3.00;78.70
610;DHT22;292;48.800;9.216;2024-01-15T15:21:11;3.00;79.10
610;DHT22;292;48.800;9.216;2024-01-15T15:23:40;3.00;79.00
610;DHT22;292;48.800;9.216;2024-01-15T15:26:07;3.00;79.00
610;DHT22;292;48.800;9.216;2024-01-15T15:28:34;3.00;79.00
610;DHT22;292;48.800;9.216;2024-01-15T15:31:02;3.00;78.70
610;DHT22;292;48.800;9.216;2024-01-15T15:33:29;3.00;78.60
610;DHT22;292;48.800;9.216;2024-01-15T15:35:56;3.00;78.30
610;DHT22;292;48.800;9.216;2024-01-15T15:38:25;3.00;78.10
610;DHT22;292;48.800;9.216;2024-01-15T15:40:54;3.00;77.80
610;DHT22;292;48.800;9.216;2024-01-15T15:43:21;3.10;77.70
610;DHT22;292;48.800;9.216;2024-01-15T15:45:49;3.10;77.30
610;DHT22;292;48.800;9.216;2024-01-15T15:48:15;3.10;76.70
610;DHT22;292;48.800;9.216;2024-01-15T15:50:42;3.10;75.70
610;DHT22;292;48.800;9.216;2024-01-15T15:53:10;3.10;75.20
610;DHT22;292;48.800;9.216;2024-01-15T15:55:37;3.10;74.80
610;DHT22;292;48.800;9.216;2024-01-15T15:58:06;3.10;74.70
610;DHT22;292;48.800;9.216;2024-01-15T16:00:33;3.20;74.40
610;DHT22;292;48.800;9.216;2024-01-15T16:03:00;3.20;73.90
610;DHT22;292;48.800;9.216;2024-01-15T16:05:27;3.20;73.10
610;DHT22;292;48.800;9.216;2024-01-15T16:07:54;3.20;72.20
610;DHT22;292;48.800;9.216;2024-01-15T16:10:21;3.20;71.60
610;DHT22;292;48.800;9.216;2024-01-15T16:12:48;3.10;71.50
610;DHT22;292;48.800;9.216;2024-01-15T16:15:20;3.10;71.50
610;DHT22;292;48.800;9.216;2024-01-15T16:17:48;3.10;71.50
610;DHT22;292;48.800;9.216;2024-01-15T16:20:16;3.10;71.50
610;DHT22;292;48.800;9.216;2024-01-15T16:22:43;3.10;71.30
610;DHT22;292;48.800;9.216;2024-01-15T16:25:10;3.00;71.50
610;DHT22;292;48.800;9.216;2024-01-15T16:27:37;3.00;71.20
610;DHT22;292;48.800;9.216;2024-01-15T16:30:05;3.10;71.20
610;DHT22;292;48.800;9.216;2024-01-15T16:32:35;3.10;70.90
610;DHT22;292;48.800;9.216;2024-01-15T16:35:02;3.00;70.60
610;DHT22;292;48.800;9.216;2024-01-15T16:37:29;3.00;70.60
610;DHT22;292;48.800;9.216;2024-01-15T16:39:56;3.10;70.20
610;DHT22;292;48.800;9.216;2024-01-15T16:42:23;3.10;70.00
610;DHT22;292;48.800;9.216;2024-01-15T16:44:50;3.10;69.80
610;DHT22;292;48.800;9.216;2024-01-15T16:47:17;3.10;69.80
610;DHT22;292;48.800;9.216;2024-01-15T16:49:46;3.10;69.80
610;DHT22;292;48.800;9.216;2024-01-15T16:52:13;3.10;69.50
610;DHT22;292;48.800;9.216;2024-01-15T16:54:40;3.10;69.30
610;DHT22;292;48.800;9.216;2024-01-15T16:57:07;3.10;69.30
610;DHT22;292;48.800;9.216;2024-01-15T16:59:34;3.10;69.30
610;DHT22;292;48.800;9.216;2024-01-15T17:02:01;3.10;69.20